KBXA/BXA METAR and TAF weather

Enter ICAO airport designator
Station Type Date Time Source
KBXA METAR 2020/03/28 19:55 UTC NOAA

KBXA 281955Z AUTO 22016G21KT 10SM SCT044 SCT050 31/18 A2991 RMK AO2 T03100184


Station Type Date Time Source
KBXA Decoded METAR 2020/03/28 19:55 UTC NOAA

Bogalusa, George R Carr Memorial Air Field, LA, United States (KBXA) 30-48-49N 089-51-53W
Mar 28, 2020 - 03:55 PM EDT / 2020.03.28 1955 UTC
Wind: from the SW (220 degrees) at 18 MPH (16 KT) gusting to 24 MPH (21 KT):0
Visibility: 10 mile(s):0
Sky conditions: partly cloudy
Temperature: 87.8 F (31.0 C)
Dew Point: 65.1 F (18.4 C)
Relative Humidity: 47%
Pressure (altimeter): 29.91 in. Hg (1012 hPa)
ob: KBXA 281955Z AUTO 22016G21KT 10SM SCT044 SCT050 31/18 A2991 RMK AO2 T03100184
cycle: 20

Station Type Date Time Source
KBXA TAF UTC NOAA

Error!

Example: see airport list